Time;durP1;ratioP1;P1;durP2;ratioP2;P2;SDS_P1;SDS_P2;PMS_P1;PMS_P2;Temp;Humidity;BMP_temperature;BMP_pressure;BME280_temperature;BME280_humidity;BME280_pressure;Samples;Min_cycle;Max_cycle;Signal;HPM_P1;HPM_P2
2023/06/14 00:01:20;;;;;;;8.90;4.93;;;;;;;18.49;68.60;95765.63;6161337;23;20008;-91
2023/06/14 00:03:47;;;;;;;10.90;4.60;;;;;;;18.40;70.48;95766.13;6137122;23;20005;-91
2023/06/14 00:06:13;;;;;;;6.47;3.83;;;;;;;18.47;70.46;95765.03;6137870;23;20005;-91
2023/06/14 00:08:39;;;;;;;8.27;4.37;;;;;;;18.34;69.50;95767.81;6172609;23;20004;-91
2023/06/14 00:11:05;;;;;;;8.23;4.77;;;;;;;18.23;71.10;95768.56;6176744;23;20064;-91
2023/06/14 00:13:31;;;;;;;8.37;4.10;;;;;;;18.47;68.94;95759.72;6163226;23;20368;-90
2023/06/14 00:15:57;;;;;;;7.73;4.13;;;;;;;18.46;69.75;95759.94;6137828;23;20012;-91
2023/06/14 00:18:23;;;;;;;7.43;5.00;;;;;;;18.11;74.17;95763.94;6137401;23;20449;-91
2023/06/14 00:20:51;;;;;;;9.97;4.70;;;;;;;18.34;72.80;95757.19;6162235;23;20059;-91
2023/06/14 00:23:17;;;;;;;7.20;4.40;;;;;;;18.28;73.68;95756.22;6137860;23;20033;-91
2023/06/14 00:25:43;;;;;;;7.60;4.37;;;;;;;18.06;73.68;95753.13;6137140;23;20005;-90
2023/06/14 00:28:08;;;;;;;7.37;4.20;;;;;;;18.27;72.99;95756.44;6170050;23;20001;-91
2023/06/14 00:30:34;;;;;;;8.43;4.47;;;;;;;18.30;72.49;95750.66;6161165;23;20009;-92
2023/06/14 00:33:01;;;;;;;9.63;4.97;;;;;;;18.06;74.51;95750.47;6137364;23;20008;-91
2023/06/14 00:35:47;;;;;;;6.83;4.73;;;;;;;18.20;73.89;95745.03;6136504;23;20005;-90
2023/06/14 00:38:13;;;;;;;6.67;4.50;;;;;;;18.19;75.35;95751.41;6136221;23;20017;-91
2023/06/14 00:40:58;;;;;;;8.10;4.40;;;;;;;18.20;75.48;95750.34;6161018;23;20102;-91
2023/06/14 00:43:24;;;;;;;7.30;4.50;;;;;;;17.85;76.74;95753.53;6161175;23;20012;-91
2023/06/14 00:45:51;;;;;;;12.83;4.10;;;;;;;17.93;77.85;95747.09;6161012;23;20005;-91
2023/06/14 00:48:17;;;;;;;9.03;4.47;;;;;;;17.93;77.57;95749.78;6137267;23;20003;-91
2023/06/14 00:50:45;;;;;;;9.43;5.20;;;;;;;17.87;78.41;95746.97;6136799;23;20012;-89
2023/06/14 00:53:12;;;;;;;9.30;5.00;;;;;;;17.84;79.46;95750.06;6161064;23;20076;-91
2023/06/14 00:55:38;;;;;;;7.23;4.57;;;;;;;17.96;78.17;95749.34;6186963;23;20345;-90
2023/06/14 00:58:03;;;;;;;8.53;4.73;;;;;;;17.88;78.41;95753.09;6136291;23;20009;-91
2023/06/14 01:00:29;;;;;;;8.20;4.57;;;;;;;17.92;78.18;95751.63;6136137;23;20109;-90
2023/06/14 01:02:55;;;;;;;7.57;4.73;;;;;;;17.99;80.04;95748.91;6135555;23;20005;-91
2023/06/14 01:05:30;;;;;;;7.50;4.30;;;;;;;17.80;80.32;95750.69;6161070;23;20019;-91
2023/06/14 01:08:13;;;;;;;24.50;5.00;;;;;;;17.75;80.57;95751.31;6160786;23;20001;-90
2023/06/14 01:11:22;;;;;;;8.60;4.47;;;;;;;17.63;82.39;95750.34;6136048;23;20005;-91
2023/06/14 01:13:53;;;;;;;6.67;4.23;;;;;;;17.54;82.71;95749.81;6160602;23;20009;-90
2023/06/14 01:16:21;;;;;;;8.63;4.47;;;;;;;17.41;83.71;95747.25;6160466;23;20001;-91
2023/06/14 01:18:49;;;;;;;8.37;4.47;;;;;;;17.52;83.34;95748.41;6136426;23;20016;-90
2023/06/14 01:21:28;;;;;;;7.70;4.47;;;;;;;17.51;83.94;95747.59;6136425;23;20008;-91
2023/06/14 01:23:54;;;;;;;7.53;3.80;;;;;;;17.41;85.84;95752.56;6135946;23;20005;-91
2023/06/14 01:26:23;;;;;;;9.67;4.30;;;;;;;17.07;87.61;95754.56;6136046;23;20001;-90
2023/06/14 01:28:52;;;;;;;7.53;4.33;;;;;;;17.34;86.15;95751.78;6135812;23;20036;-91
2023/06/14 01:31:23;;;;;;;6.70;4.10;;;;;;;17.39;86.40;95744.78;6136510;23;20001;-91
2023/06/14 01:33:52;;;;;;;8.27;4.90;;;;;;;17.17;87.46;95746.16;6138679;23;20033;-91
2023/06/14 01:36:25;;;;;;;13.37;4.90;;;;;;;17.41;86.15;95747.25;6160763;23;20012;-91
2023/06/14 01:38:52;;;;;;;8.35;4.68;;;;;;;17.10;87.01;95740.88;6160172;23;20012;-91
2023/06/14 01:41:20;;;;;;;8.23;4.47;;;;;;;17.28;88.35;95744.66;6136113;23;20000;-91
2023/06/14 01:43:48;;;;;;;7.77;4.73;;;;;;;17.26;87.64;95746.69;6185901;23;20023;-90
2023/06/14 01:46:30;;;;;;;8.17;4.77;;;;;;;17.41;86.32;95747.25;6160412;23;20029;-91
2023/06/14 01:48:56;;;;;;;8.17;4.57;;;;;;;17.29;86.82;95741.78;6160560;23;20341;-90
2023/06/14 01:51:22;;;;;;;7.60;4.57;;;;;;;16.97;89.33;95746.25;6135556;23;20847;-91
2023/06/14 01:53:48;;;;;;;10.27;4.17;;;;;;;17.18;87.28;95737.97;6186345;23;20000;-91
2023/06/14 01:56:14;;;;;;;7.40;4.60;;;;;;;17.07;87.50;95745.75;6135158;23;20051;-90
2023/06/14 01:58:40;;;;;;;8.13;4.20;;;;;;;17.24;85.88;95738.16;6136062;23;20001;-91
2023/06/14 02:01:06;;;;;;;8.93;4.53;;;;;;;17.20;86.33;95745.69;6136463;23;20040;-91
2023/06/14 02:03:32;;;;;;;7.33;4.20;;;;;;;17.12;87.57;95741.47;6135259;23;20100;-90
2023/06/14 02:06:06;;;;;;;9.10;4.70;;;;;;;17.11;87.12;95744.34;6135553;23;20063;-91
2023/06/14 02:08:32;;;;;;;8.67;4.50;;;;;;;17.15;87.46;95749.00;6135831;23;20015;-91
2023/06/14 02:11:00;;;;;;;9.13;4.40;;;;;;;16.88;89.64;95748.31;6137315;23;20460;-91
2023/06/14 02:13:25;;;;;;;7.63;4.67;;;;;;;16.97;88.88;95751.56;6147017;23;19989;-90
2023/06/14 02:15:54;;;;;;;8.27;4.27;;;;;;;16.99;88.66;95746.84;6149615;23;20009;-91
2023/06/14 02:18:21;;;;;;;6.93;4.40;;;;;;;16.99;89.21;95748.69;6135757;23;20440;-91
2023/06/14 02:20:47;;;;;;;8.20;3.83;;;;;;;16.56;92.15;95749.19;6135664;23;20015;-91
2023/06/14 02:23:22;;;;;;;7.83;4.70;;;;;;;16.84;90.81;95743.66;6135719;23;20008;-90
2023/06/14 02:25:48;;;;;;;6.83;4.13;;;;;;;16.67;92.27;95745.91;6135700;23;20016;-90
2023/06/14 02:28:13;;;;;;;9.97;4.77;;;;;;;16.69;93.41;95747.31;6135865;23;20592;-91
2023/06/14 02:30:40;;;;;;;6.13;4.40;;;;;;;16.63;94.19;95742.88;6135796;23;20421;-91
2023/06/14 02:33:06;;;;;;;8.17;5.00;;;;;;;16.73;93.59;95751.22;6135558;23;20012;-90
2023/06/14 02:35:32;;;;;;;7.90;4.53;;;;;;;16.75;93.19;95744.91;6135297;23;20449;-90
2023/06/14 02:37:57;;;;;;;7.20;4.60;;;;;;;16.77;92.86;95751.63;6160151;23;20319;-90
2023/06/14 02:40:23;;;;;;;7.27;4.80;;;;;;;16.75;94.10;95742.25;6136370;23;20009;-91
2023/06/14 02:42:49;;;;;;;10.17;4.63;;;;;;;16.67;94.02;95743.25;6161158;23;20008;-91
2023/06/14 02:45:16;;;;;;;8.17;4.80;;;;;;;16.77;94.11;95741.00;6136738;23;20083;-91
2023/06/14 02:47:42;;;;;;;8.07;5.20;;;;;;;16.50;95.41;95743.72;6144764;23;20779;-91
2023/06/14 02:50:08;;;;;;;8.73;5.10;;;;;;;16.57;95.69;95750.84;6133216;23;20005;-89
2023/06/14 02:52:34;;;;;;;10.23;5.33;;;;;;;16.66;95.23;95750.38;6161236;23;20009;-91
2023/06/14 02:55:00;;;;;;;8.77;5.57;;;;;;;16.75;95.17;95748.34;6159475;23;20031;-89
2023/06/14 02:57:36;;;;;;;7.47;4.63;;;;;;;16.78;94.78;95747.94;6135132;23;20039;-91
2023/06/14 03:00:03;;;;;;;8.63;4.80;;;;;;;16.69;96.07;95747.31;6135268;23;20009;-91
2023/06/14 03:02:31;;;;;;;10.57;5.27;;;;;;;16.53;96.46;95752.25;6134936;23;20036;-91
2023/06/14 03:05:01;;;;;;;7.27;4.47;;;;;;;16.32;97.80;95756.81;6136780;23;20005;-91
2023/06/14 03:07:29;;;;;;;8.13;5.27;;;;;;;16.47;97.58;95753.94;6137340;23;20537;-91
2023/06/14 03:09:56;;;;;;;8.67;5.30;;;;;;;16.61;96.46;95744.09;6137376;23;20035;-90
2023/06/14 03:12:21;;;;;;;7.97;5.27;;;;;;;16.32;97.64;95753.34;6137386;23;20001;-91
2023/06/14 03:14:47;;;;;;;9.73;5.47;;;;;;;16.30;98.49;95750.91;6136770;23;20453;-89
2023/06/14 03:17:17;;;;;;;8.10;4.77;;;;;;;16.57;97.04;95754.31;6137995;23;20028;-91
2023/06/14 03:19:43;;;;;;;7.40;5.13;;;;;;;16.68;96.57;95744.88;6161710;23;20012;-90
2023/06/14 03:22:09;;;;;;;9.63;5.10;;;;;;;16.52;97.48;95750.66;6137141;23;20009;-91
2023/06/14 03:24:37;;;;;;;8.30;4.23;;;;;;;16.58;97.73;95752.47;6161911;23;20037;-91
2023/06/14 03:27:09;;;;;;;8.07;5.30;;;;;;;16.53;97.65;95753.06;6161363;23;19998;-91
2023/06/14 03:29:36;;;;;;;9.83;5.10;;;;;;;16.34;99.28;95753.97;6137907;23;20005;-91
2023/06/14 03:32:03;;;;;;;8.20;4.90;;;;;;;16.19;100.00;95760.28;6138502;23;20070;-92
2023/06/14 03:34:41;;;;;;;7.30;4.77;;;;;;;16.35;99.47;95752.94;6162390;23;20008;-92
2023/06/14 03:37:10;;;;;;;8.17;5.07;;;;;;;16.10;100.00;95766.84;6138747;23;20430;-91
2023/06/14 03:39:38;;;;;;;8.97;5.27;;;;;;;15.87;100.00;95771.75;6164197;23;20001;-92
2023/06/14 03:42:05;;;;;;;8.17;5.33;;;;;;;15.97;100.00;95777.44;6141448;23;20044;-93
2023/06/14 03:44:31;;;;;;;7.83;4.50;;;;;;;16.03;100.00;95776.63;6141359;23;20029;-91
2023/06/14 03:46:57;;;;;;;9.37;5.03;;;;;;;16.20;100.00;95775.19;6141627;23;20013;-93
2023/06/14 03:49:25;;;;;;;8.03;5.10;;;;;;;15.95;100.00;95779.47;6140578;23;20028;-93
2023/06/14 03:51:52;;;;;;;7.73;5.20;;;;;;;15.87;100.00;95782.34;6138764;23;20051;-94
2023/06/14 03:54:21;;;;;;;7.93;4.73;;;;;;;15.87;100.00;95783.16;6162818;23;20009;-93
2023/06/14 04:00:09;;;;;;;7.87;4.83;;;;;;;16.29;100.00;95801.50;6162415;23;20016;-93
2023/06/14 04:02:40;;;;;;;8.85;5.00;;;;;;;16.34;100.00;95794.56;6188877;23;20005;-93
2023/06/14 04:05:08;;;;;;;8.63;5.33;;;;;;;16.53;100.00;95792.88;6137869;23;20016;-93
2023/06/14 04:07:39;;;;;;;9.40;5.37;;;;;;;16.35;100.00;95800.69;6161796;23;20052;-91
2023/06/14 04:10:08;;;;;;;8.63;5.70;;;;;;;16.60;100.00;95788.41;6185884;23;20019;-90
2023/06/14 04:12:34;;;;;;;8.90;5.00;;;;;;;16.78;99.72;95789.63;6142554;23;20009;-91
2023/06/14 04:15:00;;;;;;;7.67;4.90;;;;;;;16.96;98.37;95801.19;6146620;23;20001;-91
2023/06/14 04:17:28;;;;;;;7.30;4.73;;;;;;;16.82;98.41;95796.13;6162581;23;20013;-91
2023/06/14 04:19:54;;;;;;;8.30;4.90;;;;;;;16.54;100.00;95797.19;6138558;23;20004;-91
2023/06/14 04:22:43;;;;;;;9.80;5.30;;;;;;;16.95;100.00;95798.75;6163088;23;20012;-90
2023/06/14 04:25:11;;;;;;;9.53;5.00;;;;;;;17.10;98.73;95806.44;6148376;23;20076;-91
2023/06/14 04:27:38;;;;;;;11.83;5.70;;;;;;;16.79;99.72;95812.47;6158890;23;20020;-91
2023/06/14 04:30:05;;;;;;;8.50;5.17;;;;;;;16.89;98.55;95804.91;6178373;23;20309;-91
2023/06/14 04:32:40;;;;;;;9.93;5.50;;;;;;;16.86;98.95;95806.13;6187003;23;20005;-92
2023/06/14 04:35:08;;;;;;;9.07;5.40;;;;;;;17.01;98.89;95800.56;6137822;23;20008;-91
2023/06/14 04:38:09;;;;;;;7.07;4.77;;;;;;;17.10;98.52;95809.09;6136978;23;20475;-91
2023/06/14 04:40:42;;;;;;;9.37;5.50;;;;;;;17.14;99.99;95805.03;6136785;23;20012;-90
2023/06/14 04:43:12;;;;;;;9.17;5.40;;;;;;;17.35;97.07;95801.25;6161212;23;20001;-90
2023/06/14 04:45:39;;;;;;;7.43;5.00;;;;;;;17.35;100.00;95801.25;6137952;23;20005;-91
2023/06/14 04:48:06;;;;;;;9.17;6.07;;;;;;;17.16;98.32;95801.13;6161355;23;20453;-91
2023/06/14 04:50:34;;;;;;;9.20;5.20;;;;;;;17.21;99.08;95811.13;6136514;23;20005;-91
2023/06/14 04:53:06;;;;;;;8.63;5.60;;;;;;;17.05;99.32;95812.41;6136518;23;20009;-91
2023/06/14 04:55:33;;;;;;;8.23;5.28;;;;;;;17.35;100.00;95814.53;6136268;23;20503;-91
2023/06/14 04:57:59;;;;;;;10.93;4.93;;;;;;;17.26;99.06;95819.25;6136320;23;20006;-90
2023/06/14 05:00:26;;;;;;;7.60;4.93;;;;;;;17.47;97.99;95817.31;6150340;23;20005;-91
2023/06/14 05:02:53;;;;;;;8.40;4.90;;;;;;;17.44;98.07;95826.56;6175022;23;20151;-91
2023/06/14 05:05:19;;;;;;;9.20;5.00;;;;;;;17.67;98.74;95826.84;6176705;23;20005;-92
2023/06/14 05:07:46;;;;;;;11.60;5.00;;;;;;;17.99;98.65;95834.84;6152666;23;20025;-91
2023/06/14 05:10:20;;;;;;;9.00;5.10;;;;;;;17.92;100.00;95831.44;6162087;23;20004;-91
2023/06/14 05:12:47;;;;;;;7.67;5.17;;;;;;;18.14;96.86;95832.72;6161563;23;20012;-91
2023/06/14 05:15:14;;;;;;;9.50;5.73;;;;;;;18.19;97.58;95833.91;6136683;23;20000;-91
2023/06/14 05:17:41;;;;;;;10.60;5.50;;;;;;;18.17;94.66;95834.09;6136767;23;20135;-91
2023/06/14 05:20:10;;;;;;;8.43;5.53;;;;;;;18.31;96.05;95832.19;6163669;23;20413;-92
2023/06/14 05:22:35;;;;;;;9.70;5.10;;;;;;;18.77;92.83;95830.94;6165826;23;20012;-93
2023/06/14 05:25:02;;;;;;;9.60;5.40;;;;;;;18.55;95.21;95823.34;6164623;23;20076;-93
2023/06/14 05:27:27;;;;;;;8.03;5.47;;;;;;;18.59;96.71;95827.19;6139491;23;20005;-93
2023/06/14 05:29:58;;;;;;;7.90;5.50;;;;;;;18.84;95.67;95826.38;6139660;23;20437;-93
2023/06/14 05:32:24;;;;;;;7.50;5.37;;;;;;;19.14;92.73;95829.09;6164415;23;20415;-93
2023/06/14 05:34:50;;;;;;;9.90;6.10;;;;;;;18.87;94.17;95844.56;6140284;23;20005;-92
2023/06/14 05:37:17;;;;;;;9.37;5.63;;;;;;;19.25;92.02;95838.22;6140151;23;20021;-93
2023/06/14 05:39:42;;;;;;;9.70;6.50;;;;;;;19.19;94.39;95841.78;6139239;23;20004;-93
2023/06/14 05:42:08;;;;;;;8.43;5.57;;;;;;;19.32;94.19;95852.28;6141526;23;20015;-93
2023/06/14 05:44:34;;;;;;;7.13;4.63;;;;;;;19.40;90.57;95846.66;6193728;23;20008;-93
2023/06/14 05:47:25;;;;;;;8.57;4.83;;;;;;;19.78;90.38;95851.75;6139055;23;20031;-96
2023/06/14 05:49:51;;;;;;;9.77;5.87;;;;;;;20.31;86.80;95852.78;6136975;23;20017;-96
2023/06/14 05:52:16;;;;;;;7.43;5.50;;;;;;;20.72;84.07;95848.44;6136652;23;20059;-95
2023/06/14 05:58:23;;;;;;;12.20;5.80;;;;;;;20.90;84.91;95843.00;6190015;23;20052;-93
2023/06/14 06:00:50;;;;;;;8.57;5.90;;;;;;;21.03;83.78;95851.81;6136033;23;20013;-88
2023/06/14 06:03:16;;;;;;;8.73;5.33;;;;;;;21.41;81.53;95844.09;6138591;23;20011;-93
2023/06/14 06:05:41;;;;;;;7.60;5.33;;;;;;;21.92;78.24;95838.91;6140284;23;20005;-93
2023/06/14 06:08:44;;;;;;;8.57;5.57;;;;;;;22.00;77.17;95843.88;6139679;23;19997;-93
2023/06/14 06:14:37;;;;;;;9.87;5.30;;;;;;;20.97;82.25;95850.91;6218081;23;20369;-94
2023/06/14 06:17:03;;;;;;;8.37;5.23;;;;;;;21.51;79.63;95840.81;6161722;23;20000;-93
2023/06/14 06:23:10;;;;;;;7.80;4.63;;;;;;;22.51;70.29;95849.31;6190804;23;20012;-93
2023/06/14 06:25:35;;;;;;;8.47;4.70;;;;;;;23.16;65.09;95846.00;6133314;23;20452;-83
2023/06/14 06:28:01;;;;;;;11.07;4.83;;;;;;;23.41;62.60;95847.41;6135601;23;20001;-93
2023/06/14 06:30:26;;;;;;;8.02;4.82;;;;;;;23.42;60.26;95857.06;6160957;23;20008;-93
2023/06/14 06:32:53;;;;;;;10.20;5.10;;;;;;;22.94;65.71;95855.91;6160310;23;20044;-86
2023/06/14 06:35:18;;;;;;;8.38;4.75;;;;;;;23.43;62.77;95859.47;6136181;23;20093;-87
2023/06/14 06:41:16;;;;;;;9.02;4.93;;;;;;;24.32;56.04;95860.22;6197298;23;20024;-94
2023/06/14 06:43:41;;;;;;;7.07;4.03;;;;;;;24.61;54.52;95853.47;6161176;23;20001;-93
2023/06/14 06:46:32;;;;;;;10.68;5.07;;;;;;;24.41;52.49;95861.38;6135909;23;20011;-83
2023/06/14 06:48:57;;;;;;;13.07;5.18;;;;;;;24.99;50.25;95857.00;6134213;23;20035;-83
2023/06/14 06:51:23;;;;;;;11.73;4.80;;;;;;;25.29;50.01;95851.00;6134304;23;20013;-86
2023/06/14 06:53:55;;;;;;;6.70;4.63;;;;;;;25.60;47.89;95851.94;6159041;23;20005;-86
2023/06/14 06:56:34;;;;;;;8.98;5.20;;;;;;;24.31;53.57;95858.56;6134656;23;20005;-84
2023/06/14 06:59:00;;;;;;;6.85;4.68;;;;;;;25.37;48.81;95858.56;6183001;23;20341;-83
2023/06/14 07:01:28;;;;;;;8.48;4.70;;;;;;;26.08;45.35;95863.41;6157637;23;20016;-83
2023/06/14 07:03:57;;;;;;;9.10;4.80;;;;;;;26.26;44.06;95864.00;6158445;23;20050;-84
2023/06/14 07:06:26;;;;;;;7.78;4.93;;;;;;;26.22;44.25;95876.38;6158323;23;20083;-84
2023/06/14 07:08:52;;;;;;;7.82;4.90;;;;;;;26.96;41.68;95859.72;6134150;23;20357;-83
2023/06/14 07:11:18;;;;;;;7.03;4.90;;;;;;;25.83;44.44;95872.25;6184198;23;20012;-84
2023/06/14 07:13:43;;;;;;;6.47;4.53;;;;;;;26.61;42.11;95876.72;6133739;23;20009;-83
2023/06/14 07:16:09;;;;;;;9.38;4.10;;;;;;;27.10;41.35;95868.06;6158935;23;20417;-82
2023/06/14 07:18:35;;;;;;;11.43;4.32;;;;;;;27.45;40.35;95874.47;6133467;23;20429;-83
2023/06/14 07:21:01;;;;;;;7.88;4.50;;;;;;;29.00;37.05;95878.72;6133563;23;20573;-83
2023/06/14 07:23:26;;;;;;;7.20;4.20;;;;;;;28.31;37.46;95881.38;6133462;23;20001;-83
2023/06/14 07:25:52;;;;;;;8.30;4.80;;;;;;;29.51;35.55;95892.56;6133180;23;20062;-84
2023/06/14 07:28:18;;;;;;;5.82;4.00;;;;;;;28.69;36.13;95884.38;6167796;23;19985;-85
2023/06/14 07:30:44;;;;;;;9.95;5.13;;;;;;;26.94;40.27;95891.53;6158872;23;20503;-83
2023/06/14 07:33:11;;;;;;;8.57;4.68;;;;;;;27.14;40.11;95898.84;6184299;23;19997;-83
2023/06/14 07:35:49;;;;;;;8.35;4.65;;;;;;;29.11;34.85;95886.47;6133242;23;20029;-83
2023/06/14 07:38:15;;;;;;;9.27;4.63;;;;;;;27.73;38.57;95892.72;6157634;23;19993;-83
2023/06/14 07:40:40;;;;;;;10.07;5.10;;;;;;;27.78;37.71;95902.72;6182559;23;20012;-83
2023/06/14 07:43:07;;;;;;;6.68;3.72;;;;;;;29.62;34.77;95895.19;6157473;23;20032;-83
2023/06/14 07:45:39;;;;;;;9.50;4.35;;;;;;;29.86;34.45;95893.25;6132495;23;20013;-83
2023/06/14 07:48:05;;;;;;;10.57;4.50;;;;;;;29.96;33.72;95900.44;6157447;23;20007;-83
2023/06/14 07:50:37;;;;;;;7.32;4.45;;;;;;;31.13;31.73;95890.56;6158499;23;20000;-83
2023/06/14 07:53:17;;;;;;;;;;;;;;;30.21;33.61;95908.25;6160175;23;20017;-84
2023/06/14 07:55:51;;;;;;;8.77;4.57;;;;;;;28.66;35.07;95909.28;6159813;23;20221;-83
2023/06/14 07:58:17;;;;;;;8.40;4.35;;;;;;;29.60;34.71;95909.00;6134885;23;20092;-83
2023/06/14 08:00:42;;;;;;;6.18;3.72;;;;;;;30.10;33.73;95904.06;6158492;23;20027;-83
2023/06/14 08:03:08;;;;;;;6.18;4.13;;;;;;;29.46;33.04;95906.16;6133571;23;20064;-83
2023/06/14 08:05:34;;;;;;;11.10;4.80;;;;;;;28.69;33.99;95906.00;6159354;23;20429;-83
2023/06/14 08:08:05;;;;;;;6.10;3.97;;;;;;;28.77;34.35;95916.25;6159565;23;20001;-84
2023/06/14 08:10:30;;;;;;;7.22;4.28;;;;;;;29.66;34.06;95907.06;6134812;23;20001;-83
2023/06/14 08:12:56;;;;;;;6.13;4.28;;;;;;;29.41;34.23;95917.06;6159711;23;20009;-84
2023/06/14 08:15:22;;;;;;;6.00;4.25;;;;;;;30.49;32.53;95905.72;6159014;23;20473;-83
2023/06/14 08:17:48;;;;;;;6.00;4.10;;;;;;;29.74;31.80;95909.09;6168695;23;20103;-83
2023/06/14 08:20:16;;;;;;;6.90;3.65;;;;;;;29.19;31.93;95916.72;6159359;23;20074;-83
2023/06/14 08:22:42;;;;;;;7.05;4.47;;;;;;;29.05;33.04;95922.00;6134400;23;20005;-84
2023/06/14 08:25:09;;;;;;;7.15;4.20;;;;;;;30.70;30.63;95912.44;6133936;23;20100;-84
2023/06/14 08:27:36;;;;;;;6.57;4.05;;;;;;;28.43;33.88;95911.59;6134251;23;20496;-82
2023/06/14 08:30:02;;;;;;;7.05;4.15;;;;;;;30.03;30.75;95914.44;6183604;23;20011;-82
2023/06/14 08:32:28;;;;;;;6.00;3.92;;;;;;;28.18;31.64;95919.84;6185562;23;20004;-83
2023/06/14 08:34:53;;;;;;;5.93;3.85;;;;;;;29.63;31.23;95911.13;6134460;23;20005;-82
2023/06/14 08:37:21;;;;;;;6.97;4.25;;;;;;;29.06;31.48;95924.41;6185223;23;20001;-82
2023/06/14 08:39:47;;;;;;;8.70;4.63;;;;;;;28.48;33.23;95920.78;6158882;23;20084;-82
2023/06/14 08:42:14;;;;;;;8.27;3.80;;;;;;;30.57;31.53;95913.19;6185352;23;20009;-82
2023/06/14 08:44:40;;;;;;;8.05;4.35;;;;;;;32.19;29.43;95904.31;6159153;23;20009;-82
2023/06/14 08:47:08;;;;;;;8.13;4.18;;;;;;;31.82;29.24;95911.59;6184659;23;20059;-82
2023/06/14 08:49:37;;;;;;;7.65;4.18;;;;;;;32.05;30.10;95907.88;6185330;23;20040;-82
2023/06/14 08:52:07;;;;;;;6.13;4.07;;;;;;;30.70;29.99;95914.34;6183717;23;20017;-83
2023/06/14 08:54:36;;;;;;;6.40;4.20;;;;;;;28.98;32.50;95924.19;6158498;23;20013;-83
2023/06/14 08:57:06;;;;;;;7.28;4.13;;;;;;;27.82;34.80;95930.00;6158669;23;20345;-82
2023/06/14 08:59:38;;;;;;;7.18;4.57;;;;;;;29.67;31.97;95916.78;6185179;23;20391;-83
2023/06/14 09:02:06;;;;;;;9.10;4.07;;;;;;;30.49;31.57;95925.50;6133376;23;20114;-82
2023/06/14 09:04:33;;;;;;;6.80;3.97;;;;;;;30.12;31.03;95928.19;6158478;23;20377;-82
2023/06/14 09:06:59;;;;;;;6.38;4.28;;;;;;;32.32;27.91;95911.66;6134197;23;20001;-82
2023/06/14 09:09:25;;;;;;;7.00;4.38;;;;;;;32.69;28.50;95916.00;6134311;23;20008;-82
2023/06/14 09:11:51;;;;;;;5.97;4.07;;;;;;;31.77;28.08;95920.66;6158705;23;20024;-82
2023/06/14 09:14:19;;;;;;;9.85;4.75;;;;;;;31.69;28.13;95922.19;6158394;23;20012;-82
2023/06/14 09:16:45;;;;;;;6.07;3.58;;;;;;;32.05;27.98;95915.22;6134064;23;20001;-82
2023/06/14 09:19:23;;;;;;;5.97;3.65;;;;;;;31.88;28.14;95913.94;6184943;23;20051;-82
2023/06/14 09:21:50;;;;;;;6.72;3.58;;;;;;;33.59;27.10;95915.16;6158819;23;20028;-82
2023/06/14 09:24:15;;;;;;;5.75;4.05;;;;;;;33.36;26.34;95923.34;6184967;23;20028;-82
2023/06/14 09:26:41;;;;;;;7.65;3.90;;;;;;;30.98;28.48;95926.94;6184589;23;20005;-82
2023/06/14 09:29:06;;;;;;;7.30;4.00;;;;;;;30.03;29.83;95933.44;6184265;23;20001;-82
2023/06/14 09:31:32;;;;;;;6.28;3.92;;;;;;;30.16;29.83;95934.63;6133823;23;20083;-82
2023/06/14 09:34:01;;;;;;;7.82;3.78;;;;;;;32.15;27.76;95926.69;6158643;23;20001;-82
2023/06/14 09:36:27;;;;;;;5.20;3.60;;;;;;;31.23;27.36;95930.34;6184280;23;20005;-84
2023/06/14 09:38:57;;;;;;;6.28;3.28;;;;;;;32.10;27.20;95926.81;6183401;23;20390;-84
2023/06/14 09:41:33;;;;;;;8.30;4.18;;;;;;;32.56;26.81;95920.41;6158773;23;20013;-82
2023/06/14 09:44:03;;;;;;;6.40;3.72;;;;;;;33.35;25.23;95927.22;6184252;23;20076;-82
2023/06/14 09:46:30;;;;;;;5.93;3.80;;;;;;;32.19;27.06;95924.16;6158731;23;20441;-82
2023/06/14 09:48:57;;;;;;;6.18;3.85;;;;;;;30.78;28.40;95938.13;6136852;23;20013;-82
2023/06/14 09:51:24;;;;;;;7.78;4.13;;;;;;;31.11;28.27;95930.81;6158199;23;20013;-82
2023/06/14 09:53:50;;;;;;;5.40;4.10;;;;;;;31.55;27.21;95928.69;6184636;23;20020;-82
2023/06/14 09:56:41;;;;;;;5.40;3.17;;;;;;;33.00;27.02;95926.19;6157176;23;20008;-82
2023/06/14 09:59:36;;;;;;;;;;;;;;;;;;;;;
2023/06/14 10:03:16;;;;;;;;;;;;;;;;;;;;;
2023/06/14 10:05:45;;;;;;;6.70;4.07;;;;;;;33.39;24.81;95922.72;6157998;23;20068;-82
2023/06/14 10:08:27;;;;;;;9.13;3.50;;;;;;;33.19;25.21;95923.25;6184659;23;20013;-83
2023/06/14 10:10:55;;;;;;;7.90;4.07;;;;;;;33.42;23.95;95929.47;6133486;23;20067;-82
2023/06/14 10:13:21;;;;;;;6.15;3.83;;;;;;;35.27;22.91;95920.22;6132950;23;20052;-82
2023/06/14 10:16:13;;;;;;;6.40;3.50;;;;;;;35.60;22.05;95917.72;6183385;23;20005;-83
2023/06/14 10:19:07;;;;;;;6.05;3.65;;;;;;;34.58;22.21;95929.28;6165594;23;20047;-83
2023/06/14 10:22:02;;;;;;;4.75;3.47;;;;;;;31.36;24.83;95928.78;6134411;23;20009;-84
2023/06/14 10:24:42;;;;;;;6.57;3.45;;;;;;;31.17;25.86;95932.34;6158630;23;20005;-82
2023/06/14 10:27:11;;;;;;;6.53;3.50;;;;;;;31.23;26.37;95922.19;6158391;23;20012;-81
2023/06/14 10:29:58;;;;;;;6.40;3.47;;;;;;;32.86;24.89;95920.78;6158356;23;20495;-82
2023/06/14 10:32:25;;;;;;;5.60;3.85;;;;;;;33.66;23.73;95920.97;6133985;23;20494;-82
2023/06/14 10:34:57;;;;;;;5.28;3.20;;;;;;;34.75;22.79;95912.88;6158526;23;20027;-88
2023/06/14 10:37:24;;;;;;;;;;;;;;;33.54;22.88;95918.84;6132442;23;20020;-84
2023/06/14 10:39:51;;;;;;;6.20;3.47;;;;;;;34.14;22.77;95923.72;6158156;23;19904;-84
2023/06/14 10:42:16;;;;;;;5.88;3.53;;;;;;;33.35;23.09;95921.75;6184651;23;20005;-81
2023/06/14 10:44:49;;;;;;;11.75;3.90;;;;;;;33.91;22.64;95912.06;6158144;23;20523;-83
2023/06/14 10:47:17;;;;;;;;;;;;;;;35.10;21.38;95910.13;6133561;23;20004;-83
2023/06/14 10:49:45;;;;;;;12.23;4.00;;;;;;;32.93;24.01;95907.53;6183816;23;20283;-83
2023/06/14 10:52:18;;;;;;;8.35;4.10;;;;;;;34.73;23.13;95898.72;6183807;23;20333;-82
2023/06/14 10:55:18;;;;;;;9.75;3.80;;;;;;;34.08;23.78;95921.47;6183781;23;20341;-82
2023/06/14 10:57:51;;;;;;;8.00;4.30;;;;;;;31.20;25.24;95920.88;6133097;23;20008;-82
2023/06/14 11:00:25;;;;;;;7.95;3.67;;;;;;;33.39;23.62;95913.75;6183934;23;20386;-81
2023/06/14 11:03:16;;;;;;;4.88;3.38;;;;;;;34.70;22.69;95900.16;6157296;23;20422;-81
2023/06/14 11:05:55;;;;;;;5.15;3.22;;;;;;;34.23;21.62;95910.88;6157185;23;20001;-82
2023/06/14 11:08:51;;;;;;;8.40;3.85;;;;;;;33.83;22.66;95918.28;6158237;23;20018;-82
2023/06/14 11:11:20;;;;;;;5.53;3.60;;;;;;;34.63;22.37;95915.44;6184023;23;20055;-82
2023/06/14 11:13:51;;;;;;;7.07;3.92;;;;;;;35.12;22.06;95907.88;6184216;23;20005;-82
2023/06/14 11:16:18;;;;;;;7.32;3.28;;;;;;;34.58;22.47;95912.88;6132757;23;20016;-82
2023/06/14 11:18:45;;;;;;;7.32;3.88;;;;;;;33.21;23.43;95915.59;6157991;23;20006;-82
2023/06/14 11:21:11;;;;;;;4.78;3.58;;;;;;;30.82;25.66;95913.91;6158384;23;19997;-83
2023/06/14 11:23:37;;;;;;;4.90;3.45;;;;;;;31.27;25.83;95919.69;6158047;23;20015;-82
2023/06/14 11:26:06;;;;;;;6.72;4.18;;;;;;;31.14;26.69;95918.53;6184401;23;20487;-81
2023/06/14 11:28:38;;;;;;;9.02;3.10;;;;;;;32.20;25.02;95919.56;6159787;23;20418;-82
2023/06/14 11:31:04;;;;;;;6.38;3.42;;;;;;;32.19;25.18;95915.19;6159994;23;20032;-82
2023/06/14 11:33:30;;;;;;;5.60;3.30;;;;;;;33.47;23.78;95908.34;6159653;23;20011;-82
2023/06/14 11:35:55;;;;;;;5.90;3.35;;;;;;;33.90;23.77;95905.00;6134831;23;20009;-82
2023/06/14 11:38:21;;;;;;;5.72;3.40;;;;;;;33.71;23.63;95909.94;6185946;23;20051;-82
2023/06/14 11:40:47;;;;;;;5.88;3.25;;;;;;;32.36;23.52;95913.47;6186115;23;20011;-82
2023/06/14 11:43:14;;;;;;;6.70;3.50;;;;;;;32.82;23.05;95919.78;6187305;23;20007;-82
2023/06/14 11:45:39;;;;;;;5.75;3.80;;;;;;;33.59;22.24;95906.97;6160234;23;20004;-82
2023/06/14 11:48:06;;;;;;;5.53;3.58;;;;;;;33.54;22.46;95908.72;6135162;23;20038;-82
2023/06/14 11:50:33;;;;;;;6.32;3.70;;;;;;;33.08;22.99;95898.19;6159672;23;20076;-83
2023/06/14 11:53:06;;;;;;;7.30;3.53;;;;;;;33.25;23.49;95900.22;6186477;23;20051;-84
2023/06/14 11:58:53;;;;;;;6.93;3.50;;;;;;;32.07;24.25;95897.50;6159938;23;20019;-87
2023/06/14 12:01:25;;;;;;;6.25;3.38;;;;;;;30.53;25.16;95888.53;6159451;23;20012;-85
2023/06/14 12:03:53;;;;;;;6.47;3.70;;;;;;;31.29;24.66;95890.28;6160312;23;20013;-86
2023/06/14 12:06:33;;;;;;;6.15;3.30;;;;;;;32.50;22.78;95890.88;6159392;23;20088;-83
2023/06/14 12:08:59;;;;;;;4.35;3.00;;;;;;;32.97;22.84;95884.03;6137026;23;20051;-83